createdAt,value
2018-04-14T00:00:24.679Z,20.60
2018-04-14T00:00:56.463Z,20.60
2018-04-14T00:01:28.202Z,20.70
2018-04-14T00:01:59.935Z,20.60
2018-04-14T00:02:31.693Z,20.60
2018-04-14T00:03:03.453Z,20.70
2018-04-14T00:03:35.437Z,20.70
2018-04-14T00:04:07.350Z,20.70
2018-04-14T00:04:39.077Z,20.70
2018-04-14T00:05:10.889Z,20.70
2018-04-14T00:05:43.423Z,20.70
2018-04-14T00:06:15.940Z,20.70
2018-04-14T00:06:47.682Z,20.70
2018-04-14T00:07:19.489Z,20.70
2018-04-14T00:07:52.070Z,20.70
2018-04-14T00:08:24.565Z,20.60
2018-04-14T00:08:56.334Z,20.70
2018-04-14T00:09:28.062Z,20.60
2018-04-14T00:09:59.820Z,20.60
2018-04-14T00:10:31.570Z,20.60
2018-04-14T00:11:04.075Z,20.60
2018-04-14T00:11:35.819Z,20.60
2018-04-14T00:12:07.554Z,20.70
2018-04-14T00:12:39.295Z,20.60
2018-04-14T00:13:11.030Z,20.60
2018-04-14T00:13:42.770Z,20.60
2018-04-14T00:14:14.513Z,20.60
2018-04-14T00:14:47.006Z,20.60
2018-04-14T00:15:18.747Z,20.60
2018-04-14T00:15:50.491Z,20.60
2018-04-14T00:16:22.226Z,20.70
2018-04-14T00:16:53.958Z,20.70
2018-04-14T00:17:25.702Z,20.70
2018-04-14T00:17:57.570Z,20.70
2018-04-14T00:18:29.311Z,20.70
2018-04-14T00:19:01.054Z,20.70
2018-04-14T00:19:32.795Z,20.70
2018-04-14T00:20:04.549Z,20.70
2018-04-14T00:20:36.282Z,20.80
2018-04-14T00:21:08.049Z,20.70
2018-04-14T00:21:39.790Z,20.80
2018-04-14T00:22:11.539Z,20.80
2018-04-14T00:22:43.299Z,20.80
2018-04-14T00:23:15.070Z,20.70
2018-04-14T00:23:47.566Z,20.70
2018-04-14T00:24:19.312Z,20.70
2018-04-14T00:24:51.055Z,20.60
2018-04-14T00:25:22.806Z,20.60
2018-04-14T00:25:54.565Z,20.60
2018-04-14T00:26:26.298Z,20.60
2018-04-14T00:26:58.049Z,20.60
2018-04-14T00:27:29.807Z,20.50
2018-04-14T00:28:01.550Z,20.50
2018-04-14T00:28:33.293Z,20.50
2018-04-14T00:29:05.040Z,20.50
2018-04-14T00:29:36.795Z,20.50
2018-04-14T00:30:08.535Z,20.50
2018-04-14T00:30:40.274Z,20.50
2018-04-14T00:31:12.015Z,20.50
2018-04-14T00:31:43.752Z,20.50
2018-04-14T00:32:15.486Z,20.50
2018-04-14T00:32:47.248Z,20.50
2018-04-14T00:33:18.985Z,20.50
2018-04-14T00:33:50.716Z,20.50
2018-04-14T00:34:22.459Z,20.50
2018-04-14T00:34:54.189Z,20.50
2018-04-14T00:35:25.930Z,20.50
2018-04-14T00:35:57.662Z,20.50
2018-04-14T00:36:29.579Z,20.50
2018-04-14T00:37:01.325Z,20.50
2018-04-14T00:37:34.593Z,20.50
2018-04-14T00:38:06.338Z,20.50
2018-04-14T00:38:38.081Z,20.50
2018-04-14T00:39:09.835Z,20.50
2018-04-14T00:39:41.626Z,20.50
2018-04-14T00:40:13.512Z,20.50
2018-04-14T00:40:45.306Z,20.50
2018-04-14T00:41:17.813Z,20.50
2018-04-14T00:41:49.539Z,20.50
2018-04-14T00:42:21.281Z,20.50
2018-04-14T00:42:53.003Z,20.50
2018-04-14T00:43:25.515Z,20.50
2018-04-14T00:43:57.258Z,20.50
2018-04-14T00:44:28.995Z,20.50
2018-04-14T00:45:00.726Z,20.50
2018-04-14T00:45:32.472Z,20.50
2018-04-14T00:46:04.222Z,20.50
2018-04-14T00:46:35.968Z,20.50
2018-04-14T00:47:07.694Z,20.50
2018-04-14T00:47:39.447Z,20.50
2018-04-14T00:48:11.221Z,20.50
2018-04-14T00:48:43.552Z,20.60
2018-04-14T00:49:16.215Z,20.50
2018-04-14T00:49:47.946Z,20.50
2018-04-14T00:50:19.693Z,20.60
2018-04-14T00:50:51.426Z,20.50
2018-04-14T00:51:23.934Z,20.50
2018-04-14T00:51:55.865Z,20.50
2018-04-14T00:52:27.608Z,20.50
2018-04-14T00:52:59.351Z,20.60
2018-04-14T00:53:31.200Z,20.50
2018-04-14T00:54:03.706Z,20.50
2018-04-14T00:54:35.467Z,20.50
2018-04-14T00:55:07.278Z,20.50
2018-04-14T00:55:39.014Z,20.50
2018-04-14T00:56:10.806Z,20.50
2018-04-14T00:56:42.526Z,20.50
2018-04-14T00:57:14.263Z,20.50
2018-04-14T00:57:46.010Z,20.50
2018-04-14T00:58:17.738Z,20.50
2018-04-14T00:58:49.561Z,20.50
2018-04-14T00:59:22.022Z,20.40
2018-04-14T00:59:53.785Z,20.50
2018-04-14T01:00:25.521Z,20.50
2018-04-14T01:00:57.264Z,20.50
2018-04-14T01:01:29.008Z,20.60
2018-04-14T01:02:00.754Z,20.50
2018-04-14T01:02:32.502Z,20.50
2018-04-14T01:03:04.246Z,20.50
2018-04-14T01:03:36.020Z,20.50
2018-04-14T01:04:07.747Z,20.50
2018-04-14T01:04:39.492Z,20.50
2018-04-14T01:05:11.234Z,20.50
2018-04-14T01:05:42.977Z,20.50
2018-04-14T01:06:14.722Z,20.50
2018-04-14T01:06:46.472Z,20.50
2018-04-14T01:07:18.214Z,20.50
2018-04-14T01:07:49.950Z,20.50
2018-04-14T01:08:21.691Z,20.50
2018-04-14T01:08:53.426Z,20.50
2018-04-14T01:09:25.303Z,20.50
2018-04-14T01:09:57.954Z,20.50
2018-04-14T01:10:29.737Z,20.50
2018-04-14T01:11:01.453Z,20.60
2018-04-14T01:11:33.199Z,20.60
2018-04-14T01:12:04.945Z,20.60
2018-04-14T01:12:36.682Z,20.60
2018-04-14T01:13:08.427Z,20.60
2018-04-14T01:13:40.169Z,20.60
2018-04-14T01:14:11.912Z,20.70
2018-04-14T01:14:43.687Z,20.60
2018-04-14T01:15:15.428Z,20.60
2018-04-14T01:15:47.178Z,20.70
2018-04-14T01:16:18.909Z,20.60
2018-04-14T01:16:50.650Z,20.60
2018-04-14T01:17:22.414Z,20.60
2018-04-14T01:17:54.927Z,20.70
2018-04-14T01:18:26.656Z,20.60
2018-04-14T01:18:58.391Z,20.60
2018-04-14T01:19:30.131Z,20.60
2018-04-14T01:20:02.846Z,20.60
2018-04-14T01:20:34.613Z,20.60
2018-04-14T01:21:07.142Z,20.60
2018-04-14T01:21:38.905Z,20.60
2018-04-14T01:22:10.692Z,20.60
2018-04-14T01:22:43.216Z,20.60
2018-04-14T01:23:15.198Z,20.60
2018-04-14T01:23:47.711Z,20.50
2018-04-14T01:24:19.597Z,20.50
2018-04-14T01:24:51.334Z,20.50
2018-04-14T01:25:23.077Z,20.50
2018-04-14T01:25:54.821Z,20.60
2018-04-14T01:26:26.566Z,20.50
2018-04-14T01:26:58.299Z,20.60
2018-04-14T01:27:30.070Z,20.60
2018-04-14T01:28:02.578Z,20.50
2018-04-14T01:28:34.321Z,20.50
2018-04-14T01:29:06.050Z,20.50
2018-04-14T01:29:37.799Z,20.50
2018-04-14T01:30:09.541Z,20.50
2018-04-14T01:30:41.484Z,20.50
2018-04-14T01:31:13.205Z,20.50
2018-04-14T01:31:45.718Z,20.50
2018-04-14T01:32:17.461Z,20.50
2018-04-14T01:32:49.223Z,20.60
2018-04-14T01:33:20.954Z,20.60
2018-04-14T01:33:52.698Z,20.60
2018-04-14T01:34:24.465Z,20.60
2018-04-14T01:34:56.208Z,20.60
2018-04-14T01:35:27.941Z,20.60
2018-04-14T01:35:59.689Z,20.60
2018-04-14T01:36:31.435Z,20.50
2018-04-14T01:37:03.173Z,20.50
2018-04-14T01:37:34.917Z,20.50
2018-04-14T01:38:06.703Z,20.50
2018-04-14T01:38:38.430Z,20.40
2018-04-14T01:39:10.166Z,20.40
2018-04-14T01:39:41.899Z,20.40
2018-04-14T01:40:13.626Z,20.40
2018-04-14T01:40:45.375Z,20.40
2018-04-14T01:41:17.126Z,20.40
2018-04-14T01:41:48.866Z,20.40
2018-04-14T01:42:20.614Z,20.40
2018-04-14T01:42:52.363Z,20.40
2018-04-14T01:43:24.102Z,20.40
2018-04-14T01:43:56.027Z,20.40
2018-04-14T01:44:27.755Z,20.40
2018-04-14T01:44:59.492Z,20.30
2018-04-14T01:45:31.258Z,20.30
2018-04-14T01:46:03.006Z,20.30
2018-04-14T01:46:34.742Z,20.40
2018-04-14T01:47:06.478Z,20.40
2018-04-14T01:47:38.217Z,20.40
2018-04-14T01:48:10.782Z,20.50
2018-04-14T01:48:42.546Z,20.40
2018-04-14T01:49:14.286Z,20.40
2018-04-14T01:49:46.007Z,20.40
2018-04-14T01:50:18.602Z,20.40
2018-04-14T01:50:50.331Z,20.40
2018-04-14T01:51:22.062Z,20.40
2018-04-14T01:51:54.569Z,20.50
2018-04-14T01:52:26.317Z,20.50
2018-04-14T01:52:58.053Z,20.40
2018-04-14T01:53:29.810Z,20.50
2018-04-14T01:54:01.543Z,20.50
2018-04-14T01:54:33.292Z,20.50
2018-04-14T01:55:05.033Z,20.50
2018-04-14T01:55:36.775Z,20.50
2018-04-14T01:56:08.524Z,20.50
2018-04-14T01:56:40.255Z,20.50
2018-04-14T01:57:11.996Z,20.50
2018-04-14T01:57:43.724Z,20.50
2018-04-14T01:58:15.453Z,20.50
2018-04-14T01:58:47.197Z,20.50
2018-04-14T01:59:19.719Z,20.50
2018-04-14T01:59:51.457Z,20.50
2018-04-14T02:00:23.190Z,20.50
2018-04-14T02:00:54.935Z,20.50
2018-04-14T02:01:26.707Z,20.50
2018-04-14T02:01:58.438Z,20.50
2018-04-14T02:02:30.180Z,20.50
2018-04-14T02:03:01.948Z,20.50
2018-04-14T02:03:33.674Z,20.50
2018-04-14T02:04:05.435Z,20.50
2018-04-14T02:04:37.174Z,20.50
2018-04-14T02:05:08.915Z,20.40
2018-04-14T02:05:41.191Z,20.40
2018-04-14T02:06:13.022Z,20.30
2018-04-14T02:06:44.743Z,20.30
2018-04-14T02:07:16.485Z,20.40
2018-04-14T02:07:48.255Z,20.30
2018-04-14T02:08:19.971Z,20.30
2018-04-14T02:08:51.717Z,20.30
2018-04-14T02:09:23.494Z,20.30
2018-04-14T02:09:56.033Z,20.30
2018-04-14T02:10:27.796Z,20.30
2018-04-14T02:10:59.531Z,20.30
2018-04-14T02:11:31.282Z,20.30
2018-04-14T02:12:03.035Z,20.30
2018-04-14T02:12:34.778Z,20.30
2018-04-14T02:13:06.517Z,20.40
2018-04-14T02:13:38.236Z,20.40
2018-04-14T02:14:09.977Z,20.40
2018-04-14T02:14:41.752Z,20.40
2018-04-14T02:15:13.491Z,20.40
2018-04-14T02:15:45.219Z,20.50
2018-04-14T02:16:16.978Z,20.50
2018-04-14T02:16:48.724Z,20.50
2018-04-14T02:17:20.458Z,20.50
2018-04-14T02:17:52.203Z,20.50
2018-04-14T02:18:23.947Z,20.50
2018-04-14T02:18:55.702Z,20.50
2018-04-14T02:19:27.447Z,20.50
2018-04-14T02:19:59.217Z,20.40
2018-04-14T02:20:31.739Z,20.30
2018-04-14T02:21:03.479Z,20.30
2018-04-14T02:21:35.215Z,20.30
2018-04-14T02:22:06.948Z,20.30
2018-04-14T02:22:39.741Z,20.20
2018-04-14T02:23:11.495Z,20.20
2018-04-14T02:23:43.239Z,20.30
2018-04-14T02:24:15.053Z,20.20
2018-04-14T02:24:47.518Z,20.20
2018-04-14T02:25:19.262Z,20.20
2018-04-14T02:25:51.006Z,20.20
2018-04-14T02:26:22.756Z,20.20
2018-04-14T02:26:54.489Z,20.30
2018-04-14T02:27:26.263Z,20.30
2018-04-14T02:27:58.000Z,20.30
2018-04-14T02:28:29.768Z,20.30
2018-04-14T02:29:01.521Z,20.30
2018-04-14T02:29:33.241Z,20.30
2018-04-14T02:30:04.978Z,20.30
2018-04-14T02:30:36.745Z,20.30
2018-04-14T02:31:08.482Z,20.30
2018-04-14T02:31:40.219Z,20.30
2018-04-14T02:32:11.977Z,20.30
2018-04-14T02:32:43.748Z,20.30
2018-04-14T02:33:16.247Z,20.40
2018-04-14T02:33:47.991Z,20.40
2018-04-14T02:34:19.743Z,20.40
2018-04-14T02:34:51.486Z,20.30
2018-04-14T02:35:23.224Z,20.30
2018-04-14T02:35:54.978Z,20.30
2018-04-14T02:36:26.707Z,20.30
2018-04-14T02:36:58.488Z,20.30
2018-04-14T02:37:30.413Z,20.30
2018-04-14T02:38:02.153Z,20.30
2018-04-14T02:38:33.890Z,20.30
2018-04-14T02:39:05.692Z,20.30
2018-04-14T02:39:38.204Z,20.30
2018-04-14T02:40:10.157Z,20.30
2018-04-14T02:40:41.895Z,20.30
2018-04-14T02:41:13.640Z,20.30
2018-04-14T02:41:45.575Z,20.30
2018-04-14T02:42:17.322Z,20.40
2018-04-14T02:42:49.066Z,20.40
2018-04-14T02:43:20.796Z,20.40
2018-04-14T02:43:52.545Z,20.40
2018-04-14T02:44:24.380Z,20.40
2018-04-14T02:44:56.890Z,20.40
2018-04-14T02:45:28.657Z,20.40
2018-04-14T02:46:00.387Z,20.40
2018-04-14T02:46:32.118Z,20.30
2018-04-14T02:47:03.861Z,20.30
2018-04-14T02:47:35.592Z,20.30
2018-04-14T02:48:08.400Z,20.20
2018-04-14T02:48:40.150Z,20.20
2018-04-14T02:49:11.942Z,20.30
2018-04-14T02:49:43.682Z,20.20
2018-04-14T02:50:15.503Z,20.20
2018-04-14T02:50:48.044Z,20.20
2018-04-14T02:51:19.791Z,20.20
2018-04-14T02:51:51.549Z,20.20
2018-04-14T02:52:23.262Z,20.20
2018-04-14T02:52:54.995Z,20.20
2018-04-14T02:53:26.753Z,20.20
2018-04-14T02:53:58.478Z,20.20
2018-04-14T02:54:30.220Z,20.20
2018-04-14T02:55:01.975Z,20.20
2018-04-14T02:55:33.999Z,20.20
2018-04-14T02:56:06.524Z,20.20
2018-04-14T02:56:38.267Z,20.20
2018-04-14T02:57:10.027Z,20.20
2018-04-14T02:57:42.534Z,20.20
2018-04-14T02:58:14.278Z,20.20
2018-04-14T02:58:46.067Z,20.20
2018-04-14T02:59:18.582Z,20.20
2018-04-14T02:59:50.323Z,20.20
2018-04-14T03:00:22.065Z,20.20
2018-04-14T03:00:53.805Z,20.20
2018-04-14T03:01:25.545Z,20.20
2018-04-14T03:01:57.371Z,20.20
2018-04-14T03:02:29.975Z,20.20
2018-04-14T03:03:01.693Z,20.20
2018-04-14T03:03:33.430Z,20.20
2018-04-14T03:04:05.165Z,20.10
2018-04-14T03:04:37.660Z,20.10
2018-04-14T03:05:09.391Z,20.10
2018-04-14T03:05:41.149Z,20.20
2018-04-14T03:06:12.903Z,20.10
2018-04-14T03:06:44.865Z,20.20
2018-04-14T03:07:16.611Z,20.20
2018-04-14T03:07:48.362Z,20.30
2018-04-14T03:08:20.103Z,20.20
2018-04-14T03:08:51.890Z,20.20
2018-04-14T03:09:24.388Z,20.20
2018-04-14T03:09:56.136Z,20.20
2018-04-14T03:10:27.872Z,20.10
2018-04-14T03:10:59.618Z,20.10
2018-04-14T03:11:31.557Z,20.10
2018-04-14T03:12:03.294Z,20.10
2018-04-14T03:12:35.101Z,20.10
2018-04-14T03:13:06.824Z,20.10
2018-04-14T03:13:38.559Z,20.10
2018-04-14T03:14:10.289Z,20.10
2018-04-14T03:14:42.086Z,20.10
2018-04-14T03:15:13.830Z,20.10
2018-04-14T03:15:46.351Z,20.20
2018-04-14T03:16:18.138Z,20.20
2018-04-14T03:16:49.888Z,20.20
2018-04-14T03:17:21.614Z,20.20
2018-04-14T03:17:53.346Z,20.20
2018-04-14T03:18:25.085Z,20.20
2018-04-14T03:18:56.908Z,20.20
2018-04-14T03:19:29.369Z,20.20
2018-04-14T03:20:01.113Z,20.20
2018-04-14T03:20:32.865Z,20.20
2018-04-14T03:21:04.603Z,20.20
2018-04-14T03:21:36.348Z,20.30
2018-04-14T03:22:08.114Z,20.30
2018-04-14T03:22:39.821Z,20.30
2018-04-14T03:23:11.566Z,20.30
2018-04-14T03:23:43.292Z,20.20
2018-04-14T03:24:15.799Z,20.20
2018-04-14T03:24:47.542Z,20.20
2018-04-14T03:25:19.282Z,20.20
2018-04-14T03:25:51.046Z,20.20
2018-04-14T03:26:22.796Z,20.20
2018-04-14T03:26:54.577Z,20.20
2018-04-14T03:27:27.086Z,20.30
2018-04-14T03:27:58.830Z,20.20
2018-04-14T03:28:30.585Z,20.20
2018-04-14T03:29:02.326Z,20.20
2018-04-14T03:29:34.071Z,20.20
2018-04-14T03:30:05.882Z,20.20
2018-04-14T03:30:37.619Z,20.20
2018-04-14T03:31:09.357Z,20.20
2018-04-14T03:31:41.103Z,20.20
2018-04-14T03:32:13.635Z,20.30
2018-04-14T03:32:45.362Z,20.30
2018-04-14T03:33:17.098Z,20.30
2018-04-14T03:33:48.862Z,20.30
2018-04-14T03:34:20.605Z,20.20
2018-04-14T03:34:52.340Z,20.20
2018-04-14T03:35:24.115Z,20.20
2018-04-14T03:35:56.617Z,20.20
2018-04-14T03:36:28.377Z,20.20
2018-04-14T03:37:00.109Z,20.20
2018-04-14T03:37:31.882Z,20.20
2018-04-14T03:38:03.623Z,20.20
2018-04-14T03:38:35.363Z,20.20
2018-04-14T03:39:07.106Z,20.20
2018-04-14T03:39:38.848Z,20.20
2018-04-14T03:40:10.596Z,20.20
2018-04-14T03:40:42.335Z,20.20
2018-04-14T03:41:14.077Z,20.20
2018-04-14T03:41:45.831Z,20.10
2018-04-14T03:42:17.573Z,20.10
2018-04-14T03:42:49.329Z,20.10
2018-04-14T03:43:21.088Z,20.10
2018-04-14T03:43:52.817Z,20.00
2018-04-14T03:44:24.550Z,20.00
2018-04-14T03:44:56.314Z,20.10
2018-04-14T03:45:28.083Z,20.10
2018-04-14T03:46:00.595Z,20.10
2018-04-14T03:46:32.335Z,20.10
2018-04-14T03:47:04.090Z,20.10
2018-04-14T03:47:35.826Z,20.10
2018-04-14T03:48:07.565Z,20.10
2018-04-14T03:48:39.309Z,20.10
2018-04-14T03:49:11.063Z,20.10
2018-04-14T03:49:42.809Z,20.10
2018-04-14T03:50:14.544Z,20.10
2018-04-14T03:50:46.303Z,20.10
2018-04-14T03:51:19.173Z,20.20
2018-04-14T03:51:50.918Z,20.20
2018-04-14T03:52:22.655Z,20.20
2018-04-14T03:52:54.457Z,20.20
2018-04-14T03:53:26.979Z,20.10
2018-04-14T03:53:58.737Z,20.10
2018-04-14T03:54:30.466Z,20.10
2018-04-14T03:55:02.205Z,20.20
2018-04-14T03:55:34.186Z,20.20
2018-04-14T03:56:05.915Z,20.20
2018-04-14T03:56:37.659Z,20.20
2018-04-14T03:57:09.398Z,20.20
2018-04-14T03:57:41.134Z,20.10
2018-04-14T03:58:12.878Z,20.10
2018-04-14T03:58:44.603Z,20.10
2018-04-14T03:59:16.341Z,20.10
2018-04-14T03:59:48.076Z,20.20
2018-04-14T04:00:19.812Z,20.20
2018-04-14T04:00:51.554Z,20.20
2018-04-14T04:01:23.305Z,20.20
2018-04-14T04:01:55.798Z,20.20
2018-04-14T04:02:27.542Z,20.20
2018-04-14T04:02:59.287Z,20.20
2018-04-14T04:03:31.077Z,20.20
2018-04-14T04:04:02.813Z,20.20
2018-04-14T04:04:34.544Z,20.20
2018-04-14T04:05:06.303Z,20.20
2018-04-14T04:05:38.027Z,20.20
2018-04-14T04:06:09.765Z,20.20
2018-04-14T04:06:41.508Z,20.20
2018-04-14T04:07:13.254Z,20.20
2018-04-14T04:07:44.977Z,20.20
2018-04-14T04:08:16.748Z,20.20
2018-04-14T04:08:48.495Z,20.20
2018-04-14T04:09:20.235Z,20.20
2018-04-14T04:09:51.962Z,20.20
2018-04-14T04:10:23.712Z,20.20
2018-04-14T04:10:55.453Z,20.20
2018-04-14T04:11:27.204Z,20.20
2018-04-14T04:11:58.947Z,20.20
2018-04-14T04:12:30.686Z,20.10
2018-04-14T04:13:02.437Z,20.10
2018-04-14T04:13:34.178Z,20.10
2018-04-14T04:14:05.963Z,20.10
2018-04-14T04:14:38.467Z,20.10
2018-04-14T04:15:10.210Z,20.10
2018-04-14T04:15:41.955Z,20.10
2018-04-14T04:16:13.890Z,20.10
2018-04-14T04:16:45.634Z,20.10
2018-04-14T04:17:17.362Z,20.10
2018-04-14T04:17:49.863Z,20.10
2018-04-14T04:18:21.632Z,20.10
2018-04-14T04:18:53.385Z,20.10
2018-04-14T04:19:25.123Z,20.10
2018-04-14T04:19:56.863Z,20.10
2018-04-14T04:20:28.597Z,20.10
2018-04-14T04:21:00.349Z,20.10
2018-04-14T04:21:32.090Z,20.10
2018-04-14T04:22:03.827Z,20.10
2018-04-14T04:22:35.574Z,20.20
2018-04-14T04:23:07.313Z,20.10
2018-04-14T04:23:39.056Z,20.20
2018-04-14T04:24:10.812Z,20.20
2018-04-14T04:24:42.551Z,20.10
2018-04-14T04:25:14.388Z,20.10
2018-04-14T04:25:46.100Z,20.10
2018-04-14T04:26:17.863Z,20.10
2018-04-14T04:26:49.812Z,20.10
2018-04-14T04:27:21.544Z,20.10
2018-04-14T04:27:54.050Z,20.10
2018-04-14T04:28:26.018Z,20.00
2018-04-14T04:28:57.757Z,20.10
2018-04-14T04:29:29.496Z,20.00
2018-04-14T04:30:01.228Z,20.00
2018-04-14T04:30:32.970Z,20.00
2018-04-14T04:31:04.988Z,20.00
2018-04-14T04:31:36.708Z,20.00
2018-04-14T04:32:09.233Z,20.10
2018-04-14T04:32:40.969Z,20.10
2018-04-14T04:33:12.757Z,20.10
2018-04-14T04:33:45.254Z,20.10
2018-04-14T04:34:16.997Z,20.10
2018-04-14T04:34:48.766Z,20.10
2018-04-14T04:35:20.694Z,20.10
2018-04-14T04:35:52.430Z,20.10
2018-04-14T04:36:24.229Z,20.10
2018-04-14T04:36:55.971Z,20.10
2018-04-14T04:37:27.702Z,20.00
2018-04-14T04:37:59.434Z,20.00
2018-04-14T04:38:31.181Z,20.00
2018-04-14T04:39:02.928Z,20.00
2018-04-14T04:39:34.654Z,20.00
2018-04-14T04:40:06.393Z,20.10
2018-04-14T04:40:38.142Z,20.10
2018-04-14T04:41:09.863Z,20.10
2018-04-14T04:41:41.603Z,20.10
2018-04-14T04:42:13.338Z,20.10
2018-04-14T04:42:45.848Z,20.10
2018-04-14T04:43:17.585Z,20.10
2018-04-14T04:43:49.323Z,20.10
2018-04-14T04:44:21.149Z,20.10
2018-04-14T04:44:52.896Z,20.10
2018-04-14T04:45:24.639Z,20.10
2018-04-14T04:45:56.389Z,20.10
2018-04-14T04:46:28.874Z,20.10
2018-04-14T04:47:00.618Z,20.10
2018-04-14T04:47:32.362Z,20.10
2018-04-14T04:48:04.087Z,20.10
2018-04-14T04:48:35.824Z,20.10
2018-04-14T04:49:07.550Z,20.10
2018-04-14T04:49:40.063Z,20.10
2018-04-14T04:50:11.836Z,20.10
2018-04-14T04:50:43.575Z,20.10
2018-04-14T04:51:15.319Z,20.10
2018-04-14T04:51:47.102Z,20.10
2018-04-14T04:52:18.869Z,20.10
2018-04-14T04:52:51.341Z,20.20
2018-04-14T04:53:23.075Z,20.10
2018-04-14T04:53:54.835Z,20.20
2018-04-14T04:54:26.590Z,20.10
2018-04-14T04:54:58.330Z,20.10
2018-04-14T04:55:30.081Z,20.10
2018-04-14T04:56:01.819Z,20.10
2018-04-14T04:56:33.563Z,20.10
2018-04-14T04:57:05.303Z,20.10
2018-04-14T04:57:37.052Z,20.10
2018-04-14T04:58:08.787Z,20.10
2018-04-14T04:58:40.518Z,20.10
2018-04-14T04:59:12.269Z,20.10
2018-04-14T04:59:44.013Z,20.10
2018-04-14T05:00:15.748Z,20.10
2018-04-14T05:00:47.523Z,20.10
2018-04-14T05:01:19.242Z,20.10
2018-04-14T05:01:50.994Z,20.10
2018-04-14T05:02:22.736Z,20.10
2018-04-14T05:02:54.479Z,20.10
2018-04-14T05:03:26.222Z,20.10
2018-04-14T05:03:57.949Z,20.10
2018-04-14T05:04:29.778Z,20.10
2018-04-14T05:05:02.291Z,20.10
2018-04-14T05:05:34.083Z,20.10
2018-04-14T05:06:06.587Z,20.10
2018-04-14T05:06:38.327Z,20.10
2018-04-14T05:07:10.124Z,20.10
2018-04-14T05:07:42.643Z,20.10
2018-04-14T05:08:14.362Z,20.10
2018-04-14T05:08:46.105Z,20.10
2018-04-14T05:09:17.917Z,20.10
2018-04-14T05:09:50.438Z,20.10
2018-04-14T05:10:22.245Z,20.10
2018-04-14T05:10:54.746Z,20.10
2018-04-14T05:11:26.481Z,20.10
2018-04-14T05:11:58.225Z,20.10
2018-04-14T05:12:29.998Z,20.10
2018-04-14T05:13:01.730Z,20.10
2018-04-14T05:13:33.485Z,20.10
2018-04-14T05:14:05.231Z,20.20
2018-04-14T05:14:36.975Z,20.20
2018-04-14T05:15:08.725Z,20.20
2018-04-14T05:15:40.452Z,20.20
2018-04-14T05:16:12.214Z,20.20
2018-04-14T05:16:43.949Z,20.20
2018-04-14T05:17:15.693Z,20.20
2018-04-14T05:17:47.463Z,20.20
2018-04-14T05:18:19.382Z,20.20
2018-04-14T05:18:51.135Z,20.30
2018-04-14T05:19:22.893Z,20.30
2018-04-14T05:19:54.660Z,20.30
2018-04-14T05:20:27.152Z,20.30
2018-04-14T05:20:58.924Z,20.30
2018-04-14T05:21:30.674Z,20.30
2018-04-14T05:22:02.435Z,20.20
2018-04-14T05:22:34.174Z,20.20
2018-04-14T05:23:05.919Z,20.20
2018-04-14T05:23:37.657Z,20.20
2018-04-14T05:24:09.410Z,20.20
2018-04-14T05:24:41.341Z,20.20
2018-04-14T05:25:13.086Z,20.20
2018-04-14T05:25:44.864Z,20.20
2018-04-14T05:26:16.584Z,20.20
2018-04-14T05:26:48.322Z,20.20
2018-04-14T05:27:20.079Z,20.20
2018-04-14T05:27:51.813Z,20.20
2018-04-14T05:28:23.569Z,20.20
2018-04-14T05:28:55.299Z,20.20
2018-04-14T05:29:27.048Z,20.20
2018-04-14T05:29:58.786Z,20.20
2018-04-14T05:30:30.533Z,20.20
2018-04-14T05:31:02.277Z,20.10
2018-04-14T05:31:34.026Z,20.10
2018-04-14T05:32:05.957Z,20.10
2018-04-14T05:32:37.691Z,20.10
2018-04-14T05:33:09.432Z,20.20
2018-04-14T05:33:41.174Z,20.20
2018-04-14T05:34:12.906Z,20.20
2018-04-14T05:34:44.637Z,20.20
2018-04-14T05:35:16.378Z,20.20
2018-04-14T05:35:48.887Z,20.20
2018-04-14T05:36:20.619Z,20.20
2018-04-14T05:36:52.368Z,20.10
2018-04-14T05:37:24.130Z,20.20
2018-04-14T05:37:55.869Z,20.20
2018-04-14T05:38:27.612Z,20.20
2018-04-14T05:38:59.359Z,20.10
2018-04-14T05:39:31.103Z,20.10
2018-04-14T05:40:02.882Z,20.10
2018-04-14T05:40:35.402Z,20.20
2018-04-14T05:41:07.152Z,20.20
2018-04-14T05:41:38.897Z,20.20
2018-04-14T05:42:10.646Z,20.20
2018-04-14T05:42:42.434Z,20.30
2018-04-14T05:43:14.313Z,20.30
2018-04-14T05:43:46.111Z,20.30
2018-04-14T05:44:17.875Z,20.30
2018-04-14T05:44:50.395Z,20.30
2018-04-14T05:45:22.122Z,20.30
2018-04-14T05:45:53.864Z,20.30
2018-04-14T05:46:25.622Z,20.30
2018-04-14T05:46:57.366Z,20.30
2018-04-14T05:47:29.083Z,20.30
2018-04-14T05:48:00.824Z,20.30
2018-04-14T05:48:32.559Z,20.20
2018-04-14T05:49:04.301Z,20.20
2018-04-14T05:49:36.055Z,20.20
2018-04-14T05:50:07.791Z,20.20
2018-04-14T05:50:39.613Z,20.20
2018-04-14T05:51:11.352Z,20.20
2018-04-14T05:51:43.083Z,20.20
2018-04-14T05:52:14.844Z,20.20
2018-04-14T05:52:46.590Z,20.30
2018-04-14T05:53:18.317Z,20.30
2018-04-14T05:53:50.063Z,20.20
2018-04-14T05:54:21.795Z,20.20
2018-04-14T05:54:53.537Z,20.20
2018-04-14T05:55:25.274Z,20.20
2018-04-14T05:55:57.007Z,20.20
2018-04-14T05:56:28.756Z,20.20
2018-04-14T05:57:00.478Z,20.20
2018-04-14T05:57:32.221Z,20.20
2018-04-14T05:58:03.964Z,20.20
2018-04-14T05:58:35.695Z,20.20
2018-04-14T05:59:07.444Z,20.20
2018-04-14T05:59:39.177Z,20.30
2018-04-14T06:00:11.724Z,20.20
2018-04-14T06:00:43.665Z,20.20
2018-04-14T06:01:15.603Z,20.20
2018-04-14T06:01:47.343Z,20.20
2018-04-14T06:02:19.098Z,20.20
2018-04-14T06:02:50.834Z,20.20
2018-04-14T06:03:22.576Z,20.20
2018-04-14T06:03:54.336Z,20.10
2018-04-14T06:04:26.086Z,20.10
2018-04-14T06:04:57.818Z,20.10
2018-04-14T06:05:29.573Z,20.20
2018-04-14T06:06:01.321Z,20.20
2018-04-14T06:06:33.846Z,20.30
2018-04-14T06:07:05.579Z,20.30
2018-04-14T06:07:37.331Z,20.30
2018-04-14T06:08:09.064Z,20.40
2018-04-14T06:08:40.798Z,20.40
2018-04-14T06:09:12.557Z,20.40
2018-04-14T06:09:44.486Z,20.40
2018-04-14T06:10:16.226Z,20.50
2018-04-14T06:10:48.740Z,20.50
2018-04-14T06:11:20.511Z,20.50
2018-04-14T06:11:52.239Z,20.50
2018-04-14T06:12:23.980Z,20.50
2018-04-14T06:12:55.731Z,20.60
2018-04-14T06:13:27.478Z,20.60
2018-04-14T06:13:59.976Z,20.60
2018-04-14T06:14:31.709Z,20.60
2018-04-14T06:15:04.228Z,20.60
2018-04-14T06:15:35.982Z,20.60
2018-04-14T06:16:07.729Z,20.60
2018-04-14T06:16:39.466Z,20.60
2018-04-14T06:17:11.220Z,20.60
2018-04-14T06:17:42.974Z,20.70
2018-04-14T06:18:14.713Z,20.70
2018-04-14T06:18:46.455Z,20.70
2018-04-14T06:19:18.310Z,20.70
2018-04-14T06:19:50.041Z,20.80
2018-04-14T06:20:21.777Z,20.80
2018-04-14T06:20:53.558Z,20.80
2018-04-14T06:21:26.091Z,20.80
2018-04-14T06:21:57.842Z,20.80
2018-04-14T06:22:29.591Z,20.80
2018-04-14T06:23:01.321Z,20.80
2018-04-14T06:23:33.181Z,20.80
2018-04-14T06:24:04.939Z,20.80
2018-04-14T06:24:37.446Z,20.80
2018-04-14T06:25:09.183Z,20.80
2018-04-14T06:25:40.955Z,20.80
2018-04-14T06:26:12.673Z,20.80
2018-04-14T06:26:44.410Z,20.90
2018-04-14T06:27:16.153Z,20.90
2018-04-14T06:27:47.902Z,20.90
2018-04-14T06:28:19.647Z,20.90
2018-04-14T06:28:51.380Z,20.90
2018-04-14T06:29:23.138Z,20.90
2018-04-14T06:29:54.875Z,20.90
2018-04-14T06:30:26.631Z,20.90
2018-04-14T06:30:58.379Z,20.90
2018-04-14T06:31:30.123Z,20.90
2018-04-14T06:32:01.860Z,20.90
2018-04-14T06:32:33.658Z,20.90
2018-04-14T06:33:05.573Z,20.90
2018-04-14T06:33:37.302Z,21.00
2018-04-14T06:34:09.051Z,21.00
2018-04-14T06:34:40.785Z,21.00
2018-04-14T06:35:12.526Z,21.00
2018-04-14T06:35:44.283Z,21.00
2018-04-14T06:36:16.025Z,21.00
2018-04-14T06:36:47.791Z,21.00
2018-04-14T06:37:19.528Z,21.00
2018-04-14T06:37:52.204Z,21.00
2018-04-14T06:38:23.972Z,21.00
2018-04-14T06:38:55.707Z,21.00
2018-04-14T06:39:27.450Z,21.10
2018-04-14T06:39:59.224Z,21.10
2018-04-14T06:40:31.717Z,21.10
2018-04-14T06:41:03.463Z,21.10
2018-04-14T06:41:35.220Z,21.10
2018-04-14T06:42:06.986Z,21.10
2018-04-14T06:42:38.737Z,21.10
2018-04-14T06:43:10.473Z,21.20
2018-04-14T06:43:42.206Z,21.10
2018-04-14T06:44:14.037Z,21.20
2018-04-14T06:44:46.038Z,21.20
2018-04-14T06:45:18.553Z,21.20
2018-04-14T06:45:50.305Z,21.20
2018-04-14T06:46:22.093Z,21.20
2018-04-14T06:46:54.019Z,21.20
2018-04-14T06:47:25.763Z,21.20
2018-04-14T06:47:57.519Z,21.20
2018-04-14T06:48:29.277Z,21.20
2018-04-14T06:49:01.796Z,21.20
2018-04-14T06:49:33.541Z,21.20
2018-04-14T06:50:05.303Z,21.20